createdAt,value
2023-05-14T00:00:04.381Z,16.85
2023-05-14T00:00:20.204Z,16.75
2023-05-14T00:00:54.037Z,16.10
2023-05-14T00:01:15.267Z,16.90
2023-05-14T00:01:28.312Z,17.02
2023-05-14T00:01:42.074Z,16.63
2023-05-14T00:01:55.733Z,16.58
2023-05-14T00:02:08.364Z,16.42
2023-05-14T00:02:21.097Z,16.25
2023-05-14T00:02:33.762Z,16.25
2023-05-14T00:02:46.498Z,16.38
2023-05-14T00:02:59.315Z,17.10
2023-05-14T00:03:12.166Z,17.48
2023-05-14T00:03:25.502Z,17.25
2023-05-14T00:03:39.914Z,16.63
2023-05-14T00:03:52.541Z,16.02
2023-05-14T00:04:06.748Z,15.73
2023-05-14T00:04:19.722Z,16.25
2023-05-14T00:04:32.420Z,16.83
2023-05-14T00:04:45.131Z,17.10
2023-05-14T00:04:57.632Z,16.90
2023-05-14T00:05:10.392Z,16.70
2023-05-14T00:05:23.216Z,16.67
2023-05-14T00:05:35.781Z,16.15
2023-05-14T00:05:49.533Z,16.23
2023-05-14T00:06:02.016Z,16.50
2023-05-14T00:06:15.137Z,16.85
2023-05-14T00:06:27.697Z,17.30
2023-05-14T00:06:40.250Z,17.33
2023-05-14T00:06:52.778Z,16.98
2023-05-14T00:07:06.033Z,16.98
2023-05-14T00:07:18.583Z,16.75
2023-05-14T00:07:32.090Z,16.77
2023-05-14T00:07:44.557Z,16.73
2023-05-14T00:07:57.124Z,16.80
2023-05-14T00:08:09.957Z,17.30
2023-05-14T00:08:22.486Z,17.73
2023-05-14T00:08:35.028Z,17.80
2023-05-14T00:08:47.559Z,18.13
2023-05-14T00:09:01.089Z,18.15
2023-05-14T00:09:13.704Z,17.88
2023-05-14T00:09:26.445Z,17.55
2023-05-14T00:09:39.018Z,18.02
2023-05-14T00:09:51.536Z,17.73
2023-05-14T00:10:04.487Z,17.42
2023-05-14T00:10:19.084Z,17.73
2023-05-14T00:10:31.753Z,18.52
2023-05-14T00:10:44.322Z,18.58
2023-05-14T00:10:58.070Z,18.48
2023-05-14T00:11:10.739Z,18.02
2023-05-14T00:11:23.279Z,17.17
2023-05-14T00:11:35.792Z,17.35
2023-05-14T00:11:48.332Z,18.23
2023-05-14T00:12:01.167Z,19.00
2023-05-14T00:12:13.847Z,19.10
2023-05-14T00:12:26.652Z,19.17
2023-05-14T00:12:40.195Z,19.10
2023-05-14T00:12:52.721Z,18.90
2023-05-14T00:13:05.411Z,18.88
2023-05-14T00:13:17.940Z,19.23
2023-05-14T00:13:30.582Z,19.90
2023-05-14T00:13:43.119Z,19.20
2023-05-14T00:13:55.702Z,19.08
2023-05-14T00:14:08.230Z,18.77
2023-05-14T00:14:21.993Z,19.02
2023-05-14T00:14:34.523Z,19.15
2023-05-14T00:14:47.038Z,19.05
2023-05-14T00:14:59.593Z,18.50
2023-05-14T00:15:12.692Z,18.52
2023-05-14T00:15:25.242Z,18.40
2023-05-14T00:15:38.108Z,18.98
2023-05-14T00:15:51.692Z,18.77
2023-05-14T00:16:07.728Z,18.27
2023-05-14T00:16:20.336Z,18.42
2023-05-14T00:16:33.083Z,18.63
2023-05-14T00:16:45.865Z,18.60
2023-05-14T00:16:59.571Z,18.30
2023-05-14T00:17:12.086Z,17.88
2023-05-14T00:17:24.695Z,18.00
2023-05-14T00:17:39.046Z,18.55
2023-05-14T00:17:51.641Z,19.00
2023-05-14T00:18:04.298Z,19.30
2023-05-14T00:18:17.162Z,19.13
2023-05-14T00:18:29.720Z,18.92
2023-05-14T00:18:42.276Z,19.27
2023-05-14T00:18:54.872Z,19.30
2023-05-14T00:19:08.416Z,19.50
2023-05-14T00:19:21.002Z,19.15
2023-05-14T00:19:33.549Z,19.63
2023-05-14T00:19:46.186Z,19.48
2023-05-14T00:19:59.527Z,18.98
2023-05-14T00:20:12.719Z,18.98
2023-05-14T00:20:25.469Z,19.23
2023-05-14T00:20:38.230Z,19.30
2023-05-14T00:20:54.947Z,19.15
2023-05-14T00:21:07.702Z,19.05
2023-05-14T00:21:20.808Z,19.08
2023-05-14T00:21:33.623Z,19.13
2023-05-14T00:21:46.939Z,18.95
2023-05-14T00:21:59.773Z,19.13
2023-05-14T00:22:12.310Z,18.95
2023-05-14T00:22:24.779Z,18.95
2023-05-14T00:22:37.343Z,19.08
2023-05-14T00:22:50.824Z,18.65
2023-05-14T00:23:03.355Z,18.42
2023-05-14T00:23:15.824Z,18.25
2023-05-14T00:23:28.400Z,18.70
2023-05-14T00:23:40.939Z,17.92
2023-05-14T00:23:53.476Z,17.35
2023-05-14T00:24:06.413Z,17.25
2023-05-14T00:24:19.920Z,17.10
2023-05-14T00:24:32.487Z,16.77
2023-05-14T00:24:45.081Z,16.23
2023-05-14T00:24:57.717Z,15.93
2023-05-14T00:25:10.727Z,16.25
2023-05-14T00:25:23.590Z,16.20
2023-05-14T00:25:36.734Z,15.68
2023-05-14T00:25:49.628Z,16.02
2023-05-14T00:26:03.167Z,16.20
2023-05-14T00:26:16.168Z,16.00
2023-05-14T00:26:28.878Z,15.35
2023-05-14T00:26:41.415Z,15.15
2023-05-14T00:26:53.933Z,15.45
2023-05-14T00:27:07.153Z,15.57
2023-05-14T00:27:19.664Z,15.40
2023-05-14T00:27:32.304Z,15.10
2023-05-14T00:27:45.802Z,15.00
2023-05-14T00:27:58.411Z,15.15
2023-05-14T00:28:10.934Z,15.00
2023-05-14T00:28:23.424Z,14.80
2023-05-14T00:28:36.109Z,14.80
2023-05-14T00:28:49.130Z,14.75
2023-05-14T00:29:02.630Z,14.13
2023-05-14T00:29:15.146Z,14.07
2023-05-14T00:29:27.997Z,14.25
2023-05-14T00:29:40.503Z,13.82
2023-05-14T00:29:52.964Z,13.50
2023-05-14T00:30:06.916Z,13.60
2023-05-14T00:30:20.602Z,14.13
2023-05-14T00:30:33.162Z,14.05
2023-05-14T00:30:45.656Z,13.75
2023-05-14T00:30:58.274Z,13.30
2023-05-14T00:31:12.252Z,13.35
2023-05-14T00:31:25.380Z,13.05
2023-05-14T00:31:37.973Z,12.68
2023-05-14T00:31:51.556Z,12.90
2023-05-14T00:32:04.477Z,13.02
2023-05-14T00:32:17.081Z,13.18
2023-05-14T00:32:29.636Z,13.30
2023-05-14T00:32:42.225Z,13.27
2023-05-14T00:32:54.846Z,12.90
2023-05-14T00:33:07.852Z,12.57
2023-05-14T00:33:20.420Z,12.65
2023-05-14T00:33:33.976Z,12.73
2023-05-14T00:33:46.529Z,12.32
2023-05-14T00:33:59.075Z,12.35
2023-05-14T00:34:11.613Z,12.68
2023-05-14T00:34:24.686Z,12.52
2023-05-14T00:34:37.201Z,12.68
2023-05-14T00:34:49.695Z,13.20
2023-05-14T00:35:03.223Z,13.40
2023-05-14T00:35:16.757Z,13.55
2023-05-14T00:35:29.317Z,13.77
2023-05-14T00:35:41.827Z,13.82
2023-05-14T00:35:54.328Z,13.68
2023-05-14T00:36:07.659Z,13.65
2023-05-14T00:36:20.320Z,13.60
2023-05-14T00:36:32.845Z,13.63
2023-05-14T00:36:46.603Z,13.60
2023-05-14T00:36:59.103Z,13.35
2023-05-14T00:37:11.632Z,13.48
2023-05-14T00:37:24.354Z,13.60
2023-05-14T00:37:37.319Z,13.38
2023-05-14T00:37:49.851Z,13.30
2023-05-14T00:38:02.576Z,13.38
2023-05-14T00:38:19.331Z,13.18
2023-05-14T00:38:32.099Z,13.27
2023-05-14T00:38:44.623Z,13.15
2023-05-14T00:38:57.114Z,13.05
2023-05-14T00:39:09.907Z,13.18
2023-05-14T00:39:23.387Z,13.40
2023-05-14T00:39:35.999Z,13.13
2023-05-14T00:39:48.542Z,12.90
2023-05-14T00:40:01.071Z,12.55
2023-05-14T00:40:13.816Z,12.10
2023-05-14T00:40:27.698Z,12.38
2023-05-14T00:40:44.050Z,13.13
2023-05-14T00:40:57.598Z,13.40
2023-05-14T00:41:10.242Z,13.30
2023-05-14T00:41:22.975Z,13.10
2023-05-14T00:41:35.738Z,13.05
2023-05-14T00:41:48.251Z,13.07
2023-05-14T00:42:00.852Z,13.10
2023-05-14T00:42:13.404Z,12.88
2023-05-14T00:42:27.212Z,13.25
2023-05-14T00:42:40.047Z,13.27
2023-05-14T00:42:53.077Z,12.90
2023-05-14T00:43:05.569Z,12.63
2023-05-14T00:43:18.562Z,12.32
2023-05-14T00:43:33.155Z,12.68
2023-05-14T00:43:46.703Z,12.70
2023-05-14T00:43:59.521Z,12.32
2023-05-14T00:44:12.055Z,12.02
2023-05-14T00:44:24.561Z,12.25
2023-05-14T00:44:37.038Z,12.48
2023-05-14T00:44:49.568Z,12.73
2023-05-14T00:45:02.097Z,12.63
2023-05-14T00:45:15.886Z,12.70
2023-05-14T00:45:28.558Z,12.35
2023-05-14T00:45:41.113Z,11.95
2023-05-14T00:45:54.693Z,12.10
2023-05-14T00:46:08.134Z,12.70
2023-05-14T00:46:22.077Z,12.70
2023-05-14T00:46:34.672Z,12.70
2023-05-14T00:46:48.679Z,12.68
2023-05-14T00:47:01.720Z,12.07
2023-05-14T00:47:14.703Z,12.05
2023-05-14T00:47:27.783Z,12.23
2023-05-14T00:47:40.943Z,12.18
2023-05-14T00:47:54.710Z,11.70
2023-05-14T00:48:07.393Z,11.60
2023-05-14T00:48:21.280Z,11.60
2023-05-14T00:48:35.176Z,11.13
2023-05-14T00:48:47.698Z,11.23
2023-05-14T00:49:00.530Z,12.00
2023-05-14T00:49:13.509Z,11.95
2023-05-14T00:49:26.785Z,11.95
2023-05-14T00:49:40.945Z,12.32
2023-05-14T00:49:54.586Z,12.05
2023-05-14T00:50:08.536Z,11.80
2023-05-14T00:50:21.608Z,11.52
2023-05-14T00:50:34.659Z,11.55
2023-05-14T00:50:48.437Z,11.75
2023-05-14T00:51:01.402Z,12.02
2023-05-14T00:51:13.999Z,11.68
2023-05-14T00:51:27.871Z,11.40
2023-05-14T00:51:41.485Z,11.60
2023-05-14T00:51:54.010Z,11.63
2023-05-14T00:52:07.161Z,11.60
2023-05-14T00:52:20.482Z,11.43
2023-05-14T00:52:33.406Z,11.73
2023-05-14T00:52:46.985Z,11.60
2023-05-14T00:52:59.598Z,11.25
2023-05-14T00:53:13.440Z,11.15
2023-05-14T00:53:26.661Z,11.35
2023-05-14T00:53:39.783Z,11.70
2023-05-14T00:53:53.298Z,11.65
2023-05-14T00:54:06.407Z,11.52
2023-05-14T00:54:19.930Z,11.35
2023-05-14T00:54:34.128Z,11.32
2023-05-14T00:54:48.198Z,11.60
2023-05-14T00:55:04.240Z,11.30
2023-05-14T00:55:17.171Z,11.10
2023-05-14T00:55:30.896Z,11.40
2023-05-14T00:55:43.714Z,11.18
2023-05-14T00:55:56.684Z,10.95
2023-05-14T00:56:09.536Z,10.88
2023-05-14T00:56:23.765Z,11.13
2023-05-14T00:56:36.456Z,10.85
2023-05-14T00:56:49.331Z,10.52
2023-05-14T00:57:02.374Z,10.70
2023-05-14T00:57:14.977Z,10.98
2023-05-14T00:57:27.540Z,10.90
2023-05-14T00:57:40.718Z,10.93
2023-05-14T00:57:54.779Z,11.10
2023-05-14T00:58:10.815Z,11.05
2023-05-14T00:58:24.523Z,10.90
2023-05-14T00:58:38.043Z,11.00
2023-05-14T00:58:50.818Z,11.15
2023-05-14T00:59:03.338Z,11.10
2023-05-14T00:59:15.837Z,11.20
2023-05-14T00:59:28.390Z,11.30
2023-05-14T00:59:42.532Z,11.18
2023-05-14T00:59:55.519Z,11.40
2023-05-14T01:00:09.662Z,11.30
2023-05-14T01:00:23.564Z,11.02
2023-05-14T01:00:36.823Z,11.15
2023-05-14T01:00:49.474Z,11.32
2023-05-14T01:01:02.262Z,11.30
2023-05-14T01:01:15.367Z,11.15
2023-05-14T01:01:31.245Z,11.00
2023-05-14T01:01:43.826Z,10.80
2023-05-14T01:01:56.765Z,10.90
2023-05-14T01:02:09.369Z,10.85
2023-05-14T01:02:22.058Z,11.10
2023-05-14T01:02:35.038Z,11.20
2023-05-14T01:02:47.730Z,10.82
2023-05-14T01:03:01.892Z,10.60
2023-05-14T01:03:14.651Z,10.90
2023-05-14T01:03:30.448Z,11.13
2023-05-14T01:03:43.403Z,11.23
2023-05-14T01:03:58.051Z,11.23
2023-05-14T01:04:12.311Z,11.25
2023-05-14T01:04:25.225Z,10.57
2023-05-14T01:04:39.094Z,10.60
2023-05-14T01:04:52.218Z,11.02
2023-05-14T01:05:05.528Z,11.13
2023-05-14T01:05:18.327Z,11.55
2023-05-14T01:05:40.525Z,11.43
2023-05-14T01:06:12.444Z,11.00
2023-05-14T01:06:34.457Z,11.02
2023-05-14T01:06:55.381Z,10.65
2023-05-14T01:07:14.060Z,10.35
2023-05-14T01:07:33.693Z,10.70
2023-05-14T01:07:56.352Z,10.73
2023-05-14T01:08:17.240Z,10.73
2023-05-14T01:08:36.708Z,11.40
2023-05-14T01:09:01.532Z,10.57
2023-05-14T01:09:23.724Z,10.60
2023-05-14T01:09:43.180Z,11.05
2023-05-14T01:10:01.536Z,10.82
2023-05-14T01:10:21.613Z,10.35
2023-05-14T01:10:50.923Z,10.45
2023-05-14T01:11:08.167Z,10.38
2023-05-14T01:11:26.141Z,10.55
2023-05-14T01:11:51.039Z,10.95
2023-05-14T01:12:10.234Z,11.13
2023-05-14T01:12:34.595Z,10.38
2023-05-14T01:12:53.447Z,10.40
2023-05-14T01:13:13.670Z,10.57
2023-05-14T01:13:33.927Z,10.90
2023-05-14T01:13:55.562Z,10.80
2023-05-14T01:14:19.144Z,10.48
2023-05-14T01:14:39.738Z,10.65
2023-05-14T01:15:02.187Z,10.82
2023-05-14T01:15:20.050Z,10.90
2023-05-14T01:15:35.112Z,10.82
2023-05-14T01:15:49.680Z,10.88
2023-05-14T01:16:04.243Z,10.52
2023-05-14T01:16:18.945Z,10.48
2023-05-14T01:16:34.531Z,10.90
2023-05-14T01:16:50.887Z,11.13
2023-05-14T01:17:06.161Z,11.02
2023-05-14T01:17:20.685Z,11.05
2023-05-14T01:17:38.022Z,10.80
2023-05-14T01:17:54.321Z,10.63
2023-05-14T01:18:09.565Z,10.60
2023-05-14T01:18:23.553Z,10.55
2023-05-14T01:18:36.767Z,10.95
2023-05-14T01:18:52.122Z,10.75
2023-05-14T01:19:06.205Z,10.65
2023-05-14T01:19:26.979Z,11.27
2023-05-14T01:19:41.284Z,11.20
2023-05-14T01:19:55.604Z,10.88
2023-05-14T01:20:09.296Z,10.75
2023-05-14T01:20:22.264Z,10.43
2023-05-14T01:20:36.492Z,10.40
2023-05-14T01:20:51.500Z,10.30
2023-05-14T01:21:04.350Z,10.25
2023-05-14T01:21:37.298Z,10.55
2023-05-14T01:21:49.788Z,10.82
2023-05-14T01:22:02.316Z,10.82
2023-05-14T01:22:16.346Z,11.02
2023-05-14T01:22:28.994Z,10.70
2023-05-14T01:22:41.576Z,10.63
2023-05-14T01:22:54.119Z,10.75
2023-05-14T01:23:06.794Z,10.73
2023-05-14T01:23:19.298Z,10.57
2023-05-14T01:23:31.769Z,10.52
2023-05-14T01:23:45.304Z,10.48
2023-05-14T01:23:57.833Z,10.65
2023-05-14T01:24:10.538Z,11.00
2023-05-14T01:24:23.002Z,10.98
2023-05-14T01:24:36.212Z,10.77
2023-05-14T01:24:48.776Z,10.65
2023-05-14T01:25:02.334Z,10.70
2023-05-14T01:25:15.052Z,10.65
2023-05-14T01:25:27.984Z,10.80
2023-05-14T01:25:41.407Z,10.90
2023-05-14T01:25:54.231Z,10.88
2023-05-14T01:26:06.857Z,10.70
2023-05-14T01:26:20.900Z,10.65
2023-05-14T01:26:34.727Z,10.60
2023-05-14T01:26:47.323Z,11.10
2023-05-14T01:27:07.445Z,11.23
2023-05-14T01:27:27.180Z,11.30
2023-05-14T01:27:47.548Z,10.90
2023-05-14T01:28:06.563Z,10.75
2023-05-14T01:28:21.458Z,10.70
2023-05-14T01:28:37.635Z,11.00
2023-05-14T01:28:52.951Z,10.75
2023-05-14T01:29:14.206Z,10.45
2023-05-14T01:29:29.184Z,10.80
2023-05-14T01:29:45.564Z,11.10
2023-05-14T01:30:08.086Z,11.02
2023-05-14T01:30:26.105Z,10.65
2023-05-14T01:30:43.625Z,10.50
2023-05-14T01:31:02.447Z,10.77
2023-05-14T01:31:18.871Z,10.40
2023-05-14T01:31:34.546Z,10.38
2023-05-14T01:31:50.029Z,10.50
2023-05-14T01:32:07.899Z,10.48
2023-05-14T01:32:24.555Z,10.38
2023-05-14T01:32:39.545Z,10.82
2023-05-14T01:32:55.586Z,10.77
2023-05-14T01:33:12.164Z,10.82
2023-05-14T01:33:27.546Z,10.82
2023-05-14T01:33:43.712Z,11.00
2023-05-14T01:33:59.357Z,10.73
2023-05-14T01:34:13.117Z,11.18
2023-05-14T01:34:28.449Z,11.60
2023-05-14T01:34:41.921Z,11.30
2023-05-14T01:34:58.456Z,11.15
2023-05-14T01:35:12.829Z,10.93
2023-05-14T01:35:27.093Z,10.88
2023-05-14T01:35:40.492Z,10.90
2023-05-14T01:35:54.196Z,11.00
2023-05-14T01:36:07.068Z,10.57
2023-05-14T01:36:19.678Z,10.73
2023-05-14T01:36:34.649Z,10.60
2023-05-14T01:36:49.280Z,10.25
2023-05-14T01:37:02.802Z,10.68
2023-05-14T01:37:16.356Z,10.90
2023-05-14T01:37:31.217Z,11.05
2023-05-14T01:37:45.126Z,11.18
2023-05-14T01:38:01.211Z,10.85
2023-05-14T01:38:18.049Z,10.60
2023-05-14T01:38:33.992Z,10.98
2023-05-14T01:38:48.689Z,11.35
2023-05-14T01:39:02.440Z,11.45
2023-05-14T01:39:15.381Z,11.50
2023-05-14T01:39:28.082Z,11.27
2023-05-14T01:39:42.164Z,11.20
2023-05-14T01:39:56.554Z,11.07
2023-05-14T01:40:11.138Z,11.10
2023-05-14T01:40:24.199Z,10.77
2023-05-14T01:40:37.417Z,10.70
2023-05-14T01:40:51.083Z,11.30
2023-05-14T01:41:05.370Z,11.32
2023-05-14T01:41:19.302Z,11.07
2023-05-14T01:41:32.942Z,11.05
2023-05-14T01:41:47.513Z,10.75
2023-05-14T01:42:01.464Z,10.43
2023-05-14T01:42:14.431Z,10.50
2023-05-14T01:42:28.050Z,10.60
2023-05-14T01:42:41.341Z,10.40
2023-05-14T01:42:54.897Z,10.50
2023-05-14T01:43:07.799Z,10.73
2023-05-14T01:43:21.392Z,10.70
2023-05-14T01:43:35.612Z,10.88
2023-05-14T01:43:49.395Z,10.68
2023-05-14T01:44:02.106Z,10.18
2023-05-14T01:44:14.871Z,10.48
2023-05-14T01:44:27.479Z,10.55
2023-05-14T01:44:40.405Z,10.68
2023-05-14T01:44:53.536Z,10.68
2023-05-14T01:45:06.758Z,10.65
2023-05-14T01:45:21.485Z,10.50
2023-05-14T01:45:36.319Z,10.65
2023-05-14T01:45:48.937Z,10.95
2023-05-14T01:46:01.553Z,10.98
2023-05-14T01:46:14.129Z,10.95
2023-05-14T01:46:26.834Z,10.45
2023-05-14T01:46:39.494Z,10.85
2023-05-14T01:46:53.060Z,10.75
2023-05-14T01:47:05.888Z,10.52
2023-05-14T01:47:18.363Z,10.48
2023-05-14T01:47:31.006Z,10.55
2023-05-14T01:47:43.707Z,10.40
2023-05-14T01:47:56.590Z,10.30
2023-05-14T01:48:10.203Z,10.38
2023-05-14T01:48:22.858Z,10.60
2023-05-14T01:48:35.681Z,10.68
2023-05-14T01:48:48.154Z,10.57
2023-05-14T01:49:01.172Z,10.38
2023-05-14T01:49:13.720Z,10.25
2023-05-14T01:49:26.203Z,10.30
2023-05-14T01:49:38.680Z,10.73
2023-05-14T01:49:52.471Z,10.75
2023-05-14T01:50:06.127Z,10.35
2023-05-14T01:50:18.894Z,10.10
2023-05-14T01:50:31.407Z,10.30
2023-05-14T01:50:43.958Z,10.48
2023-05-14T01:50:56.485Z,10.30
2023-05-14T01:51:09.099Z,10.50
2023-05-14T01:51:21.613Z,10.35
2023-05-14T01:51:36.711Z,10.73
2023-05-14T01:51:49.291Z,10.57
2023-05-14T01:52:01.842Z,10.32
2023-05-14T01:52:14.403Z,10.60
2023-05-14T01:52:27.468Z,10.82
2023-05-14T01:52:40.036Z,10.70
2023-05-14T01:52:56.305Z,10.55
2023-05-14T01:53:09.813Z,10.48
2023-05-14T01:53:22.328Z,10.75
2023-05-14T01:53:34.934Z,10.52
2023-05-14T01:53:47.492Z,10.40
2023-05-14T01:54:00.155Z,10.80
2023-05-14T01:54:12.685Z,10.73
2023-05-14T01:54:25.245Z,10.90
2023-05-14T01:54:37.769Z,10.80
2023-05-14T01:54:51.396Z,10.73
2023-05-14T01:55:05.208Z,10.65
2023-05-14T01:55:18.383Z,10.70
2023-05-14T01:55:31.009Z,10.45
2023-05-14T01:55:43.496Z,10.43
2023-05-14T01:55:56.044Z,10.38
2023-05-14T01:56:08.810Z,10.43
2023-05-14T01:56:23.510Z,10.73
2023-05-14T01:56:36.091Z,10.73
2023-05-14T01:56:48.562Z,10.52
2023-05-14T01:57:01.091Z,10.48
2023-05-14T01:57:13.653Z,10.38
2023-05-14T01:57:26.218Z,10.43
2023-05-14T01:57:39.718Z,10.63
2023-05-14T01:57:52.513Z,10.75
2023-05-14T01:58:05.018Z,10.70
2023-05-14T01:58:17.504Z,10.40
2023-05-14T01:58:29.985Z,10.57
2023-05-14T01:58:42.531Z,10.95
2023-05-14T01:58:56.733Z,10.85
2023-05-14T01:59:10.287Z,10.52
2023-05-14T01:59:22.963Z,10.63
2023-05-14T01:59:35.653Z,10.50
2023-05-14T01:59:48.167Z,10.57
2023-05-14T02:00:01.040Z,10.65
2023-05-14T02:00:14.112Z,11.05
2023-05-14T02:00:27.148Z,11.00
2023-05-14T02:00:40.687Z,10.85
2023-05-14T02:00:53.184Z,10.70
2023-05-14T02:01:07.484Z,10.63
2023-05-14T02:01:20.238Z,10.90
2023-05-14T02:01:33.971Z,11.07
2023-05-14T02:01:46.762Z,11.20
2023-05-14T02:01:59.364Z,11.20
2023-05-14T02:02:12.036Z,10.75
2023-05-14T02:02:25.974Z,10.18
2023-05-14T02:02:38.578Z,10.55
2023-05-14T02:02:51.169Z,10.55
2023-05-14T02:03:03.845Z,10.35
2023-05-14T02:03:16.461Z,10.45
2023-05-14T02:03:29.001Z,10.65
2023-05-14T02:03:41.820Z,10.48
2023-05-14T02:03:54.436Z,10.68
2023-05-14T02:04:08.056Z,10.60
2023-05-14T02:04:20.979Z,10.60
2023-05-14T02:04:33.501Z,10.77
2023-05-14T02:04:46.314Z,10.70
2023-05-14T02:04:58.816Z,10.63
2023-05-14T02:05:11.757Z,10.90
2023-05-14T02:05:24.352Z,10.80
2023-05-14T02:05:36.927Z,10.77
2023-05-14T02:05:49.682Z,10.57
2023-05-14T02:06:03.212Z,10.88
2023-05-14T02:06:15.848Z,11.25
2023-05-14T02:06:28.392Z,11.00
2023-05-14T02:06:42.298Z,10.52
2023-05-14T02:06:54.821Z,10.82
2023-05-14T02:07:07.346Z,10.98
2023-05-14T02:07:20.121Z,11.20
2023-05-14T02:07:33.711Z,11.32
2023-05-14T02:07:46.201Z,11.50
2023-05-14T02:07:58.814Z,11.20
2023-05-14T02:08:11.513Z,10.98
2023-05-14T02:08:24.079Z,10.88
2023-05-14T02:08:36.564Z,10.88
2023-05-14T02:08:49.103Z,11.00
2023-05-14T02:09:01.641Z,11.00
2023-05-14T02:09:14.225Z,11.18
2023-05-14T02:09:27.679Z,11.18
2023-05-14T02:09:40.281Z,11.30
2023-05-14T02:09:52.776Z,11.38
2023-05-14T02:10:06.409Z,11.35
2023-05-14T02:10:19.215Z,10.93
2023-05-14T02:10:31.689Z,10.73
2023-05-14T02:10:45.195Z,10.93
2023-05-14T02:10:57.994Z,10.85
2023-05-14T02:11:10.534Z,11.02
2023-05-14T02:11:23.064Z,10.88
2023-05-14T02:11:35.647Z,10.98
2023-05-14T02:11:48.171Z,11.38
2023-05-14T02:12:01.666Z,11.38
2023-05-14T02:12:14.196Z,11.40
2023-05-14T02:12:26.768Z,11.10
2023-05-14T02:12:39.423Z,10.85
2023-05-14T02:12:51.901Z,10.82
2023-05-14T02:13:04.423Z,10.73
2023-05-14T02:13:17.071Z,10.70
2023-05-14T02:13:29.592Z,11.15
2023-05-14T02:13:43.141Z,11.30
2023-05-14T02:13:55.742Z,11.10
2023-05-14T02:14:08.261Z,10.68
2023-05-14T02:14:20.842Z,10.80
2023-05-14T02:14:33.630Z,11.27
2023-05-14T02:14:46.126Z,11.20
2023-05-14T02:14:59.615Z,11.05
2023-05-14T02:15:12.754Z,11.05
2023-05-14T02:15:25.417Z,11.00
2023-05-14T02:15:38.720Z,11.45
2023-05-14T02:15:51.368Z,11.20
2023-05-14T02:16:04.507Z,11.27
2023-05-14T02:16:17.132Z,11.02
2023-05-14T02:16:30.770Z,11.10
2023-05-14T02:16:43.325Z,11.20
2023-05-14T02:16:56.339Z,11.10
2023-05-14T02:17:09.108Z,11.10
2023-05-14T02:17:22.162Z,11.13
2023-05-14T02:17:34.707Z,11.10
2023-05-14T02:17:47.335Z,11.05
2023-05-14T02:18:00.857Z,11.23
2023-05-14T02:18:13.709Z,11.98
2023-05-14T02:18:26.220Z,12.35
2023-05-14T02:18:38.837Z,12.07
2023-05-14T02:18:51.492Z,12.00
2023-05-14T02:19:04.181Z,12.27
2023-05-14T02:19:16.781Z,12.45
2023-05-14T02:19:29.397Z,12.57
2023-05-14T02:19:42.857Z,12.35
2023-05-14T02:19:55.381Z,11.80
2023-05-14T02:20:10.336Z,11.45
2023-05-14T02:20:23.058Z,11.63
2023-05-14T02:20:35.715Z,11.98
2023-05-14T02:20:48.276Z,11.93
2023-05-14T02:21:00.842Z,11.75
2023-05-14T02:21:14.350Z,11.73
2023-05-14T02:21:26.991Z,11.48
2023-05-14T02:21:39.571Z,11.70
2023-05-14T02:21:53.688Z,11.50
2023-05-14T02:22:06.230Z,11.32
2023-05-14T02:22:18.762Z,11.60
2023-05-14T02:22:31.329Z,11.77
2023-05-14T02:22:46.030Z,11.77
2023-05-14T02:22:59.631Z,11.75
2023-05-14T02:23:12.127Z,11.57
2023-05-14T02:23:34.164Z,11.32
2023-05-14T02:23:51.205Z,11.88
2023-05-14T02:24:03.943Z,11.73
2023-05-14T02:24:16.512Z,11.70
2023-05-14T02:24:30.003Z,11.88
2023-05-14T02:24:42.623Z,12.00
2023-05-14T02:24:55.189Z,11.63
2023-05-14T02:25:09.010Z,11.80
2023-05-14T02:25:21.532Z,11.88
2023-05-14T02:25:34.312Z,11.65
2023-05-14T02:25:46.825Z,11.45
2023-05-14T02:25:59.338Z,11.73
2023-05-14T02:26:12.915Z,11.73
2023-05-14T02:26:25.751Z,11.75
2023-05-14T02:26:38.301Z,11.80
2023-05-14T02:26:50.888Z,11.57
2023-05-14T02:27:03.805Z,11.48
2023-05-14T02:27:16.363Z,11.43
2023-05-14T02:27:28.931Z,11.93
2023-05-14T02:27:42.398Z,11.88
2023-05-14T02:27:55.397Z,11.48
2023-05-14T02:28:07.892Z,11.38
2023-05-14T02:28:20.433Z,11.45
2023-05-14T02:28:32.928Z,11.90
2023-05-14T02:28:45.729Z,12.20
2023-05-14T02:28:58.301Z,12.00
2023-05-14T02:29:12.387Z,11.70
2023-05-14T02:29:25.292Z,11.77
2023-05-14T02:29:37.784Z,12.00
2023-05-14T02:29:50.411Z,11.77
2023-05-14T02:30:03.068Z,11.50
2023-05-14T02:30:15.805Z,11.70
2023-05-14T02:30:30.026Z,12.23
2023-05-14T02:30:42.532Z,12.05
2023-05-14T02:30:59.937Z,11.68
2023-05-14T02:31:12.554Z,11.65
2023-05-14T02:31:25.160Z,11.60
2023-05-14T02:31:37.845Z,11.60
2023-05-14T02:31:50.591Z,11.55
2023-05-14T02:32:04.252Z,11.70
2023-05-14T02:32:16.803Z,11.50
2023-05-14T02:32:29.459Z,11.20
2023-05-14T02:32:42.129Z,11.02
2023-05-14T02:32:54.756Z,11.30
2023-05-14T02:33:07.730Z,11.66
2023-05-14T02:33:20.469Z,11.95
2023-05-14T02:33:33.302Z,12.15
2023-05-14T02:33:46.838Z,11.85
2023-05-14T02:34:01.238Z,11.68
2023-05-14T02:34:13.780Z,11.88
2023-05-14T02:34:26.353Z,11.60
2023-05-14T02:34:38.902Z,11.27
2023-05-14T02:34:51.492Z,11.23
2023-05-14T02:35:04.388Z,11.55
2023-05-14T02:35:18.117Z,11.85
2023-05-14T02:35:30.746Z,11.40
2023-05-14T02:35:43.344Z,11.60
2023-05-14T02:35:55.946Z,11.70
2023-05-14T02:36:08.762Z,11.63
2023-05-14T02:36:21.387Z,11.35
2023-05-14T02:36:33.995Z,11.38
2023-05-14T02:36:46.814Z,11.63
2023-05-14T02:37:01.653Z,11.57
2023-05-14T02:37:14.222Z,11.40
2023-05-14T02:37:26.839Z,11.63
2023-05-14T02:37:39.471Z,11.60
2023-05-14T02:37:51.999Z,11.77
2023-05-14T02:38:04.625Z,11.50
2023-05-14T02:38:18.735Z,11.50
2023-05-14T02:38:31.278Z,11.93
2023-05-14T02:38:43.798Z,11.65
2023-05-14T02:38:58.555Z,11.32
2023-05-14T02:39:11.109Z,11.25
2023-05-14T02:39:23.578Z,11.10
2023-05-14T02:39:36.064Z,11.25
2023-05-14T02:39:49.991Z,11.07
2023-05-14T02:40:02.539Z,11.63
2023-05-14T02:40:15.783Z,12.40
2023-05-14T02:40:28.591Z,12.70
2023-05-14T02:40:41.054Z,12.32
2023-05-14T02:40:53.560Z,12.25
2023-05-14T02:41:07.087Z,11.73
2023-05-14T02:41:19.973Z,11.65
2023-05-14T02:41:32.554Z,11.32
2023-05-14T02:41:45.058Z,11.40
2023-05-14T02:41:57.535Z,11.43
2023-05-14T02:42:10.060Z,11.35
2023-05-14T02:42:22.688Z,11.30
2023-05-14T02:42:36.495Z,11.30
2023-05-14T02:42:49.065Z,11.82
2023-05-14T02:43:01.572Z,12.27
2023-05-14T02:43:14.071Z,12.30
2023-05-14T02:43:26.622Z,12.15
2023-05-14T02:43:39.276Z,11.90
2023-05-14T02:43:52.753Z,11.95
2023-05-14T02:44:05.552Z,11.77
2023-05-14T02:44:19.289Z,11.93
2023-05-14T02:44:32.365Z,12.32
2023-05-14T02:44:44.908Z,12.20
2023-05-14T02:44:57.416Z,11.95
2023-05-14T02:45:10.612Z,11.55
2023-05-14T02:45:23.105Z,11.43
2023-05-14T02:45:35.912Z,11.35
2023-05-14T02:45:48.464Z,11.60
2023-05-14T02:46:01.982Z,11.55
2023-05-14T02:46:14.751Z,11.35
2023-05-14T02:46:27.405Z,11.50
2023-05-14T02:46:40.240Z,11.68
2023-05-14T02:46:52.856Z,11.32
2023-05-14T02:47:06.027Z,11.48
2023-05-14T02:47:18.958Z,11.65
2023-05-14T02:47:32.495Z,11.70
2023-05-14T02:47:45.257Z,11.50
2023-05-14T02:47:58.236Z,11.75
2023-05-14T02:48:10.884Z,11.73
2023-05-14T02:48:23.502Z,12.18
2023-05-14T02:48:36.021Z,12.07
2023-05-14T02:48:48.537Z,11.73
2023-05-14T02:49:02.976Z,11.30
2023-05-14T02:49:15.491Z,11.48
2023-05-14T02:49:28.514Z,11.50
2023-05-14T02:49:41.021Z,11.55
2023-05-14T02:49:53.527Z,11.55
2023-05-14T02:50:07.420Z,11.60
2023-05-14T02:50:19.911Z,11.65
2023-05-14T02:50:32.428Z,11.77
2023-05-14T02:50:44.949Z,11.40
2023-05-14T02:50:58.486Z,11.50
2023-05-14T02:51:12.450Z,11.82
2023-05-14T02:51:25.307Z,11.75
2023-05-14T02:51:37.823Z,11.45
2023-05-14T02:51:50.615Z,11.43
2023-05-14T02:52:05.003Z,11.70
2023-05-14T02:52:18.557Z,11.82
2023-05-14T02:52:31.018Z,11.60
2023-05-14T02:52:43.620Z,11.63
2023-05-14T02:52:56.342Z,11.88
2023-05-14T02:53:08.876Z,11.85
2023-05-14T02:53:21.382Z,11.60
2023-05-14T02:53:34.946Z,11.68
2023-05-14T02:53:47.552Z,11.93
2023-05-14T02:54:00.172Z,12.10
2023-05-14T02:54:12.653Z,12.20
2023-05-14T02:54:25.156Z,12.13
2023-05-14T02:54:37.674Z,11.90
2023-05-14T02:54:50.257Z,11.98
2023-05-14T02:55:03.309Z,12.10
2023-05-14T02:55:16.953Z,12.00
2023-05-14T02:55:29.878Z,11.95